Time;durP1;ratioP1;P1;durP2;ratioP2;P2;SDS_P1;SDS_P2;PMS_P1;PMS_P2;Temp;Humidity;BMP_temperature;BMP_pressure;BME280_temperature;BME280_humidity;BME280_pressure;Samples;Min_cycle;Max_cycle;Signal;HPM_P1;HPM_P2
2022/02/27 00:01:12;;;;;;;8.67;6.00;;;16.70;48.20;;;;;;5060361;28;20415;-81
2022/02/27 00:03:41;;;;;;;12.43;6.60;;;16.60;48.10;;;;;;5058721;28;20423;-81
2022/02/27 00:06:09;;;;;;;10.10;6.20;;;16.60;48.10;;;;;;5058243;28;21035;-82
2022/02/27 00:08:37;;;;;;;10.30;6.20;;;16.60;48.20;;;;;;5058561;28;20469;-82
2022/02/27 00:11:06;;;;;;;10.30;6.33;;;16.50;48.30;;;;;;5067953;28;20437;-81
2022/02/27 00:13:34;;;;;;;9.40;5.73;;;16.50;48.30;;;;;;5058876;28;20501;-81
2022/02/27 00:16:02;;;;;;;7.30;5.07;;;16.50;48.20;;;;;;5058258;28;20501;-81
2022/02/27 00:18:30;;;;;;;10.17;5.33;;;16.40;48.20;;;;;;5060083;28;20439;-81
2022/02/27 00:20:58;;;;;;;13.37;6.40;;;16.50;48.30;;;;;;5059406;28;20466;-81
2022/02/27 00:23:25;;;;;;;11.67;6.40;;;16.50;48.30;;;;;;5060365;28;20498;-81
2022/02/27 00:25:53;;;;;;;10.80;6.73;;;16.40;48.30;;;;;;5078468;28;20470;-80
2022/02/27 00:28:22;;;;;;;10.63;6.03;;;16.40;48.30;;;;;;5078157;28;20445;-81
2022/02/27 00:30:52;;;;;;;8.57;5.77;;;16.40;48.40;;;;;;5068550;28;20494;-81
2022/02/27 00:33:20;;;;;;;12.03;6.63;;;16.30;48.30;;;;;;5058638;28;20462;-81
2022/02/27 00:35:48;;;;;;;12.10;5.57;;;16.30;48.40;;;;;;5058214;28;20462;-81
2022/02/27 00:38:18;;;;;;;7.77;5.57;;;16.30;48.40;;;;;;5076342;28;20786;-81
2022/02/27 00:40:46;;;;;;;11.83;6.60;;;16.30;48.40;;;;;;5077770;28;20447;-81
2022/02/27 00:43:14;;;;;;;7.03;5.87;;;16.20;48.30;;;;;;5073308;28;20485;-82
2022/02/27 00:45:43;;;;;;;9.83;5.90;;;16.20;48.50;;;;;;5081162;28;20438;-81
2022/02/27 00:48:11;;;;;;;9.57;5.43;;;16.20;48.40;;;;;;5072026;28;20427;-81
2022/02/27 00:50:39;;;;;;;10.27;5.90;;;16.20;49.10;;;;;;5062455;28;20506;-81
2022/02/27 00:53:08;;;;;;;9.60;6.27;;;16.20;48.50;;;;;;5062068;28;20528;-82
2022/02/27 00:55:35;;;;;;;16.07;5.90;;;16.10;48.60;;;;;;5078013;28;20465;-82
2022/02/27 00:58:03;;;;;;;9.97;5.67;;;16.10;48.60;;;;;;5078244;28;20438;-81
2022/02/27 01:00:32;;;;;;;15.90;5.80;;;16.10;48.60;;;;;;5077068;28;20504;-81
2022/02/27 01:03:02;;;;;;;14.37;6.07;;;16.00;48.40;;;;;;5073192;28;20533;-80
2022/02/27 01:05:30;;;;;;;12.30;5.97;;;16.00;48.40;;;;;;5057605;28;20521;-81
2022/02/27 01:07:58;;;;;;;7.70;5.50;;;16.00;48.40;;;;;;5057594;28;20453;-81
2022/02/27 01:10:28;;;;;;;8.60;5.93;;;16.00;48.50;;;;;;5068507;28;20473;-81
2022/02/27 01:12:56;;;;;;;11.80;5.37;;;16.00;48.50;;;;;;5063544;28;20454;-81
2022/02/27 01:15:24;;;;;;;9.50;6.20;;;15.90;48.50;;;;;;5064487;28;20474;-81
2022/02/27 01:17:52;;;;;;;10.20;5.97;;;15.90;48.60;;;;;;5079363;28;20445;-80
2022/02/27 01:20:21;;;;;;;13.40;6.87;;;15.80;48.50;;;;;;5061307;28;20466;-80
2022/02/27 01:22:49;;;;;;;8.93;5.13;;;15.90;48.60;;;;;;5060909;28;20469;-82
2022/02/27 01:25:17;;;;;;;11.10;6.33;;;15.80;48.60;;;;;;5062622;28;20463;-81
2022/02/27 01:27:45;;;;;;;9.63;5.73;;;15.80;48.60;;;;;;5060848;28;20469;-81
2022/02/27 01:30:13;;;;;;;14.20;6.17;;;15.80;48.50;;;;;;5060754;28;20466;-81
2022/02/27 01:32:41;;;;;;;9.27;5.30;;;15.70;48.60;;;;;;5071441;28;20518;-81
2022/02/27 01:35:09;;;;;;;9.27;5.60;;;15.70;48.60;;;;;;5080484;28;20522;-82
2022/02/27 01:37:38;;;;;;;8.30;5.80;;;15.70;48.50;;;;;;5067859;28;20442;-82
2022/02/27 01:40:08;;;;;;;7.77;5.27;;;15.70;48.70;;;;;;5060816;28;20426;-81
2022/02/27 01:42:37;;;;;;;10.33;5.60;;;15.70;48.70;;;;;;5064947;28;20517;-81
2022/02/27 01:45:06;;;;;;;8.80;5.90;;;15.60;48.50;;;;;;5080263;28;20469;-81
2022/02/27 01:47:34;;;;;;;12.83;5.43;;;15.70;48.60;;;;;;5067430;28;20455;-81
2022/02/27 01:50:02;;;;;;;10.20;5.80;;;15.60;48.60;;;;;;5071816;28;20996;-82
2022/02/27 01:52:30;;;;;;;10.43;6.10;;;15.60;48.60;;;;;;5080345;28;21009;-81
2022/02/27 01:54:59;;;;;;;10.53;5.87;;;15.50;48.60;;;;;;5080727;28;20489;-81
2022/02/27 01:57:27;;;;;;;9.50;6.03;;;15.50;48.50;;;;;;5060608;28;20481;-81
2022/02/27 01:59:55;;;;;;;7.77;5.53;;;15.50;48.60;;;;;;5060825;28;20469;-81
2022/02/27 02:02:22;;;;;;;10.00;5.80;;;15.40;48.70;;;;;;5060053;28;20430;-81
2022/02/27 02:04:51;;;;;;;12.20;5.60;;;15.40;48.70;;;;;;5067247;28;20442;-80
2022/02/27 02:07:18;;;;;;;9.40;5.77;;;15.40;48.60;;;;;;5066673;28;20471;-81
2022/02/27 02:09:46;;;;;;;8.77;5.77;;;15.40;48.60;;;;;;5059693;28;20431;-82
2022/02/27 02:12:16;;;;;;;10.63;5.10;;;15.40;48.70;;;;;;5065729;28;20469;-81
2022/02/27 02:14:46;;;;;;;8.10;5.00;;;15.40;48.70;;;;;;5079331;28;20459;-81
2022/02/27 02:17:14;;;;;;;9.43;5.83;;;15.40;48.70;;;;;;5080829;28;20449;-81
2022/02/27 02:19:42;;;;;;;7.37;5.20;;;15.30;48.70;;;;;;5064971;28;20443;-81
2022/02/27 02:22:12;;;;;;;9.10;4.83;;;15.30;48.60;;;;;;5060039;28;20450;-82
2022/02/27 02:24:42;;;;;;;8.97;5.33;;;15.30;48.60;;;;;;5073839;28;20545;-82
2022/02/27 02:27:10;;;;;;;11.20;5.77;;;15.30;48.70;;;;;;5059841;28;20520;-81
2022/02/27 02:29:38;;;;;;;7.77;5.10;;;15.30;48.60;;;;;;5060531;28;20438;-81
2022/02/27 02:32:06;;;;;;;9.60;5.70;;;15.20;48.60;;;;;;5059437;28;20528;-80
2022/02/27 02:34:34;;;;;;;7.50;5.33;;;15.20;48.70;;;;;;5060168;28;20466;-81
2022/02/27 02:37:02;;;;;;;10.87;5.43;;;15.20;48.70;;;;;;5065360;28;20458;-82
2022/02/27 02:39:31;;;;;;;6.37;4.93;;;15.20;48.40;;;;;;5079757;28;20461;-81
2022/02/27 02:41:59;;;;;;;6.93;5.03;;;15.20;48.60;;;;;;5079564;28;20524;-82
2022/02/27 02:44:27;;;;;;;7.50;4.97;;;15.10;48.50;;;;;;5079383;28;20426;-81
2022/02/27 02:46:57;;;;;;;7.67;4.73;;;15.10;48.70;;;;;;5079178;28;20480;-82
2022/02/27 02:49:25;;;;;;;8.00;5.57;;;15.10;48.70;;;;;;5079466;28;20449;-82
2022/02/27 02:51:53;;;;;;;5.20;4.70;;;15.10;48.70;;;;;;5079377;28;20477;-81
2022/02/27 02:54:20;;;;;;;8.70;5.53;;;15.10;48.70;;;;;;5073250;28;20480;-82
2022/02/27 02:56:57;;;;;;;9.23;5.80;;;15.10;48.70;;;;;;5077414;28;20454;-82
2022/02/27 02:59:25;;;;;;;8.63;5.70;;;15.00;48.70;;;;;;5079956;28;20502;-81
2022/02/27 03:01:53;;;;;;;7.10;5.23;;;15.00;48.60;;;;;;5080246;28;20446;-81
2022/02/27 03:04:22;;;;;;;8.77;5.30;;;15.00;48.70;;;;;;5078885;28;20450;-81
2022/02/27 03:06:50;;;;;;;8.90;5.70;;;15.00;48.70;;;;;;5071807;28;20494;-82
2022/02/27 03:09:20;;;;;;;8.80;5.60;;;15.00;48.60;;;;;;5072891;28;20488;-82
2022/02/27 03:11:48;;;;;;;7.50;5.30;;;15.00;48.70;;;;;;5079502;28;20457;-82
2022/02/27 03:14:17;;;;;;;10.93;5.20;;;14.90;48.80;;;;;;5076115;28;20438;-82
2022/02/27 03:16:45;;;;;;;7.93;5.53;;;14.90;48.70;;;;;;5059274;28;20516;-81
2022/02/27 03:19:13;;;;;;;8.13;5.33;;;14.90;48.80;;;;;;5077841;28;20465;-82
2022/02/27 03:21:41;;;;;;;7.20;5.30;;;14.90;48.70;;;;;;5079844;28;20503;-82
2022/02/27 03:24:08;;;;;;;7.87;4.90;;;14.90;48.80;;;;;;5079328;28;20466;-81
2022/02/27 03:26:36;;;;;;;8.30;5.53;;;14.80;48.70;;;;;;5078915;28;20461;-82
2022/02/27 03:29:04;;;;;;;5.57;4.60;;;14.80;48.70;;;;;;5079421;28;20438;-82
2022/02/27 03:31:34;;;;;;;6.70;5.07;;;14.80;48.70;;;;;;5078177;28;20972;-82
2022/02/27 03:34:02;;;;;;;8.30;5.03;;;14.80;48.70;;;;;;5078836;28;20433;-82
2022/02/27 03:36:31;;;;;;;5.20;4.60;;;14.80;48.70;;;;;;5079741;28;20493;-83
2022/02/27 03:38:59;;;;;;;6.50;5.20;;;14.80;48.80;;;;;;5078621;28;20406;-83
2022/02/27 03:41:27;;;;;;;7.47;5.20;;;14.80;48.70;;;;;;5079658;28;20442;-82
2022/02/27 03:43:55;;;;;;;11.67;5.53;;;14.70;48.70;;;;;;5078354;28;20480;-83
2022/02/27 03:46:23;;;;;;;7.17;4.90;;;14.70;48.80;;;;;;5079268;28;20469;-82
2022/02/27 03:48:52;;;;;;;6.53;4.70;;;14.70;49.30;;;;;;5079165;28;20454;-82
2022/02/27 03:51:20;;;;;;;8.73;5.27;;;14.70;48.60;;;;;;5078945;28;20469;-82
2022/02/27 03:53:48;;;;;;;8.07;4.80;;;14.70;48.60;;;;;;5079548;28;20514;-83
2022/02/27 03:56:17;;;;;;;8.33;5.57;;;14.70;48.80;;;;;;5079682;28;20520;-82
2022/02/27 03:58:45;;;;;;;9.97;5.70;;;14.60;48.70;;;;;;5078044;28;20461;-83
2022/02/27 04:01:12;;;;;;;5.60;4.57;;;14.60;48.80;;;;;;5078882;28;20838;-83
2022/02/27 04:03:49;;;;;;;8.23;5.20;;;14.60;48.80;;;;;;5079101;28;20537;-81
2022/02/27 04:06:20;;;;;;;7.50;5.03;;;14.60;48.70;;;;;;5076700;28;20499;-81
2022/02/27 04:08:48;;;;;;;7.30;5.10;;;14.60;48.80;;;;;;5076301;28;20989;-81
2022/02/27 04:11:16;;;;;;;8.67;4.60;;;14.60;48.80;;;;;;5076876;28;20497;-80
2022/02/27 04:13:44;;;;;;;6.77;4.70;;;14.60;48.80;;;;;;5076484;28;20531;-81
2022/02/27 04:16:12;;;;;;;6.57;4.87;;;14.60;48.80;;;;;;5077433;28;20480;-82
2022/02/27 04:18:40;;;;;;;5.47;4.50;;;14.50;48.70;;;;;;5078485;28;20437;-83
2022/02/27 04:21:08;;;;;;;9.10;4.87;;;14.50;48.70;;;;;;5080112;28;20438;-84
2022/02/27 04:23:37;;;;;;;5.67;4.90;;;14.50;48.80;;;;;;5076139;28;20481;-81
2022/02/27 04:26:05;;;;;;;8.73;5.13;;;14.50;48.80;;;;;;5072083;28;20491;-81
2022/02/27 04:28:33;;;;;;;7.10;4.60;;;14.50;48.70;;;;;;5076778;28;20437;-81
2022/02/27 04:31:01;;;;;;;6.77;4.83;;;14.40;48.60;;;;;;5076990;28;20936;-79
2022/02/27 04:33:29;;;;;;;9.30;4.80;;;14.40;48.80;;;;;;5078837;28;20517;-79
2022/02/27 04:35:57;;;;;;;8.13;4.80;;;14.40;48.80;;;;;;5078299;28;20453;-80
2022/02/27 04:38:25;;;;;;;6.20;4.43;;;14.30;48.70;;;;;;5078522;28;20421;-80
2022/02/27 04:40:54;;;;;;;6.53;4.90;;;14.40;48.80;;;;;;5079072;28;20437;-79
2022/02/27 04:43:22;;;;;;;8.50;5.03;;;14.40;48.60;;;;;;5077994;28;20437;-80
2022/02/27 04:45:50;;;;;;;5.87;4.20;;;14.30;48.70;;;;;;5061692;28;20461;-80
2022/02/27 04:48:18;;;;;;;7.30;5.00;;;14.30;48.70;;;;;;5061691;28;20442;-79
2022/02/27 04:50:46;;;;;;;11.07;4.83;;;14.30;48.80;;;;;;5062307;28;20565;-81
2022/02/27 04:53:13;;;;;;;5.13;3.90;;;14.30;48.60;;;;;;5062626;28;20470;-79
2022/02/27 04:55:41;;;;;;;5.63;4.47;;;14.30;48.70;;;;;;5062088;28;20477;-79
2022/02/27 04:58:11;;;;;;;7.87;4.73;;;14.20;48.70;;;;;;5075995;28;20481;-79
2022/02/27 05:00:39;;;;;;;6.20;4.67;;;14.20;48.80;;;;;;5081831;28;20452;-80
2022/02/27 05:03:07;;;;;;;9.33;4.40;;;14.20;48.80;;;;;;5081358;28;20453;-79
2022/02/27 05:05:38;;;;;;;5.97;4.50;;;14.20;48.80;;;;;;5081020;28;20453;-79
2022/02/27 05:08:06;;;;;;;6.37;4.03;;;14.10;48.70;;;;;;5082915;28;20442;-81
2022/02/27 05:10:34;;;;;;;6.00;4.23;;;14.20;48.90;;;;;;5083368;28;20429;-80
2022/02/27 05:13:01;;;;;;;7.80;5.00;;;14.10;48.60;;;;;;5082189;28;20473;-79
2022/02/27 05:15:31;;;;;;;5.07;4.50;;;14.10;48.70;;;;;;5082098;28;20466;-79
2022/02/27 05:17:58;;;;;;;4.13;3.50;;;14.10;48.70;;;;;;5082156;28;20441;-80
2022/02/27 05:20:27;;;;;;;7.83;5.00;;;14.10;48.50;;;;;;5082238;28;20561;-80
2022/02/27 05:22:54;;;;;;;7.87;4.30;;;14.10;48.60;;;;;;5083318;28;20495;-80
2022/02/27 05:25:23;;;;;;;6.27;4.23;;;14.10;48.70;;;;;;5080299;28;20469;-78
2022/02/27 05:27:52;;;;;;;6.20;4.50;;;14.00;48.50;;;;;;5084091;28;20442;-80
2022/02/27 05:30:20;;;;;;;5.83;3.87;;;14.00;48.60;;;;;;5084184;28;20426;-80
2022/02/27 05:32:50;;;;;;;5.57;4.10;;;14.00;48.60;;;;;;5085302;28;20465;-80
2022/02/27 05:35:18;;;;;;;5.80;4.40;;;14.00;48.60;;;;;;5085876;28;20485;-81
2022/02/27 05:37:46;;;;;;;8.10;4.60;;;14.00;48.80;;;;;;5085334;28;20421;-80
2022/02/27 05:40:15;;;;;;;5.60;4.00;;;14.00;48.50;;;;;;5080217;28;20449;-80
2022/02/27 05:42:43;;;;;;;7.00;4.30;;;13.90;48.60;;;;;;5063521;28;20435;-80
2022/02/27 05:45:11;;;;;;;7.20;4.53;;;13.90;48.60;;;;;;5064382;28;20466;-80
2022/02/27 05:47:39;;;;;;;6.20;4.47;;;14.00;48.60;;;;;;5084095;28;20544;-80
2022/02/27 05:50:09;;;;;;;5.43;4.37;;;13.90;48.50;;;;;;5066748;28;20454;-80
2022/02/27 05:52:37;;;;;;;4.80;4.03;;;13.90;48.70;;;;;;5067004;28;20459;-80
2022/02/27 05:55:06;;;;;;;6.10;3.87;;;13.90;48.60;;;;;;5066063;28;20463;-80
2022/02/27 05:57:34;;;;;;;4.77;3.87;;;13.90;48.70;;;;;;5066435;28;20431;-81
2022/02/27 06:00:02;;;;;;;6.03;4.47;;;13.80;48.60;;;;;;5065499;28;20426;-81
2022/02/27 06:02:30;;;;;;;6.90;4.47;;;13.90;48.60;;;;;;5070265;28;20456;-80
2022/02/27 06:05:04;;;;;;;6.90;4.10;;;13.80;48.50;;;;;;5086562;28;20523;-80
2022/02/27 06:07:33;;;;;;;5.43;4.20;;;13.80;48.60;;;;;;5087293;28;20446;-80
2022/02/27 06:10:01;;;;;;;4.63;3.83;;;13.80;48.60;;;;;;5086883;28;20467;-80
2022/02/27 06:12:28;;;;;;;6.87;4.50;;;13.80;48.60;;;;;;5086019;28;20470;-80
2022/02/27 06:14:57;;;;;;;10.70;3.97;;;13.80;48.70;;;;;;5070800;28;20458;-80
2022/02/27 06:17:25;;;;;;;4.20;3.70;;;13.80;48.50;;;;;;5064367;28;20435;-80
2022/02/27 06:19:53;;;;;;;6.07;4.17;;;13.80;48.70;;;;;;5078559;28;20465;-80
2022/02/27 06:22:21;;;;;;;5.60;3.80;;;13.80;48.60;;;;;;5084544;28;20430;-80
2022/02/27 06:24:51;;;;;;;4.23;3.83;;;13.70;48.50;;;;;;5085278;28;20452;-80
2022/02/27 06:27:18;;;;;;;4.83;4.07;;;13.70;48.50;;;;;;5083404;28;20473;-80
2022/02/27 06:29:46;;;;;;;6.80;4.53;;;13.70;48.70;;;;;;5082558;28;20445;-80
2022/02/27 06:32:15;;;;;;;5.10;3.77;;;13.70;48.50;;;;;;5082471;28;20552;-81
2022/02/27 06:34:43;;;;;;;6.60;4.07;;;13.70;48.60;;;;;;5082716;28;20466;-81
2022/02/27 06:37:11;;;;;;;4.37;3.93;;;13.70;48.60;;;;;;5080593;28;20472;-81
2022/02/27 06:39:39;;;;;;;6.80;4.23;;;13.70;48.50;;;;;;5081284;28;20937;-80
2022/02/27 06:42:08;;;;;;;4.20;3.63;;;13.70;48.50;;;;;;5081155;28;20453;-79
2022/02/27 06:44:36;;;;;;;7.00;4.10;;;13.70;48.60;;;;;;5080961;28;20433;-79
2022/02/27 06:47:07;;;;;;;4.80;4.23;;;13.80;48.70;;;;;;5080929;28;20422;-80
2022/02/27 06:49:35;;;;;;;7.87;4.40;;;13.70;48.60;;;;;;5080045;28;20473;-80
2022/02/27 06:52:04;;;;;;;4.30;3.73;;;13.80;48.50;;;;;;5079496;28;20441;-79
2022/02/27 06:54:31;;;;;;;6.10;3.83;;;13.80;48.60;;;;;;5080403;28;20440;-80
2022/02/27 06:56:59;;;;;;;4.93;4.30;;;13.80;48.50;;;;;;5079947;28;20429;-79
2022/02/27 06:59:29;;;;;;;6.10;4.03;;;13.80;48.60;;;;;;5080310;28;20461;-79
2022/02/27 07:01:56;;;;;;;4.63;4.10;;;13.80;48.50;;;;;;5080973;28;20446;-80
2022/02/27 07:04:24;;;;;;;5.13;3.50;;;13.80;48.60;;;;;;5080265;28;20445;-80
2022/02/27 07:06:52;;;;;;;4.27;3.50;;;13.80;48.60;;;;;;5079611;28;20480;-80
2022/02/27 07:09:21;;;;;;;6.53;4.57;;;13.80;48.80;;;;;;5078953;28;20445;-79
2022/02/27 07:11:49;;;;;;;4.70;3.60;;;13.90;48.50;;;;;;5080530;28;20468;-79
2022/02/27 07:14:16;;;;;;;6.37;3.77;;;13.80;48.50;;;;;;5080212;28;20473;-79
2022/02/27 07:16:46;;;;;;;4.00;3.50;;;13.80;48.60;;;;;;5078663;28;20475;-79
2022/02/27 07:19:16;;;;;;;5.80;4.30;;;13.80;48.60;;;;;;5079767;28;20418;-79
2022/02/27 07:21:44;;;;;;;5.57;3.80;;;13.80;48.80;;;;;;5080412;28;20433;-79
2022/02/27 07:24:12;;;;;;;4.97;3.97;;;13.80;48.60;;;;;;5080380;28;20452;-79
2022/02/27 07:26:40;;;;;;;4.60;3.67;;;13.90;48.80;;;;;;5078212;28;20466;-79
2022/02/27 07:29:08;;;;;;;4.17;3.70;;;13.90;48.60;;;;;;5059802;28;20454;-79
2022/02/27 07:31:36;;;;;;;5.73;4.07;;;13.90;48.60;;;;;;5060047;28;20427;-79
2022/02/27 07:34:06;;;;;;;4.10;3.67;;;14.00;48.70;;;;;;5059481;28;20470;-79
2022/02/27 07:36:34;;;;;;;4.80;3.87;;;14.00;48.70;;;;;;5059754;28;20470;-79
2022/02/27 07:39:02;;;;;;;5.40;4.07;;;14.00;48.80;;;;;;5060054;28;20470;-79
2022/02/27 07:41:30;;;;;;;5.17;4.40;;;14.10;49.00;;;;;;5059045;28;20493;-80
2022/02/27 07:43:58;;;;;;;6.73;4.60;;;14.10;48.80;;;;;;5057067;28;20477;-79
2022/02/27 07:46:26;;;;;;;5.43;3.90;;;14.10;48.70;;;;;;5056628;28;20490;-78
2022/02/27 07:48:54;;;;;;;7.60;4.77;;;14.20;48.80;;;;;;5053470;28;20446;-78
2022/02/27 07:51:26;;;;;;;5.17;4.10;;;14.30;48.80;;;;;;5055117;28;20466;-78
2022/02/27 07:53:54;;;;;;;4.90;3.90;;;14.30;48.80;;;;;;5055666;28;20470;-79
2022/02/27 07:56:22;;;;;;;6.03;4.20;;;14.30;48.80;;;;;;5055365;28;20524;-78
2022/02/27 07:58:51;;;;;;;4.23;3.80;;;14.30;48.80;;;;;;5064044;28;20460;-79
2022/02/27 08:01:20;;;;;;;6.43;4.30;;;14.40;48.80;;;;;;5075507;28;20430;-79
2022/02/27 08:03:48;;;;;;;5.50;3.90;;;14.40;48.80;;;;;;5075550;28;20445;-78
2022/02/27 08:06:16;;;;;;;4.43;3.80;;;14.50;49.00;;;;;;5075873;28;20472;-79
2022/02/27 08:08:45;;;;;;;4.53;3.60;;;14.50;48.90;;;;;;5076011;28;20472;-79
2022/02/27 08:11:13;;;;;;;3.60;3.30;;;14.60;48.90;;;;;;5077066;28;20476;-79
2022/02/27 08:13:41;;;;;;;8.13;3.87;;;14.60;48.80;;;;;;5076515;28;20469;-79
2022/02/27 08:16:09;;;;;;;4.23;3.80;;;14.70;48.80;;;;;;5067673;28;20477;-80
2022/02/27 08:18:37;;;;;;;5.40;4.30;;;14.80;48.90;;;;;;5076493;28;20437;-80
2022/02/27 08:21:05;;;;;;;5.43;3.80;;;15.00;49.00;;;;;;5079646;28;20449;-79
2022/02/27 08:23:34;;;;;;;4.80;4.30;;;15.20;48.70;;;;;;5081658;28;20528;-81
2022/02/27 08:26:03;;;;;;;6.77;4.60;;;15.50;48.10;;;;;;5076958;28;20445;-79
2022/02/27 08:28:31;;;;;;;4.07;3.70;;;15.70;47.80;;;;;;5080432;28;20430;-79
2022/02/27 08:30:59;;;;;;;4.50;4.00;;;15.90;48.10;;;;;;5078740;28;20503;-79
2022/02/27 08:33:28;;;;;;;7.13;4.70;;;15.80;48.50;;;;;;5081683;28;20466;-80
2022/02/27 08:35:56;;;;;;;5.83;4.20;;;16.00;48.80;;;;;;5081259;28;20449;-80
2022/02/27 08:38:24;;;;;;;5.07;4.10;;;16.10;48.90;;;;;;5079406;28;20430;-79
2022/02/27 08:40:52;;;;;;;4.63;3.90;;;16.10;49.40;;;;;;5082231;28;20476;-80
2022/02/27 08:43:21;;;;;;;5.10;4.57;;;16.30;49.70;;;;;;5080647;28;20438;-80
2022/02/27 08:45:49;;;;;;;5.33;4.17;;;16.50;49.60;;;;;;5083453;28;20461;-81
2022/02/27 08:48:17;;;;;;;5.60;4.10;;;16.80;49.60;;;;;;5083141;28;20446;-82
2022/02/27 08:50:45;;;;;;;4.73;4.03;;;16.90;49.70;;;;;;5082114;28;20677;-81
2022/02/27 08:53:13;;;;;;;5.50;4.47;;;17.10;49.90;;;;;;5080809;28;20475;-80
2022/02/27 08:55:42;;;;;;;4.63;3.73;;;17.30;50.10;;;;;;5075378;28;20460;-78
2022/02/27 08:58:10;;;;;;;5.53;4.00;;;17.40;50.20;;;;;;5075088;28;20429;-79
2022/02/27 09:00:40;;;;;;;6.57;4.13;;;17.60;50.40;;;;;;5074581;28;20483;-78
2022/02/27 09:03:10;;;;;;;3.70;3.40;;;17.70;50.50;;;;;;5082545;28;20517;-79
2022/02/27 09:05:38;;;;;;;4.57;3.90;;;18.00;50.60;;;;;;5082944;28;20499;-83
2022/02/27 09:08:08;;;;;;;6.50;4.10;;;18.20;50.40;;;;;;5081631;28;20763;-83
2022/02/27 09:10:36;;;;;;;5.27;4.20;;;18.40;50.40;;;;;;5082203;28;20437;-84
2022/02/27 09:13:04;;;;;;;5.27;4.10;;;18.50;50.50;;;;;;5081517;28;20467;-82
2022/02/27 09:15:32;;;;;;;5.23;4.73;;;18.70;50.50;;;;;;5081261;28;20473;-82
2022/02/27 09:18:02;;;;;;;6.97;4.00;;;16.70;39.00;;;;;;5067911;28;20469;-84
2022/02/27 09:20:30;;;;;;;7.60;4.37;;;14.80;37.90;;;;;;5079216;28;20473;-84
2022/02/27 09:22:58;;;;;;;8.57;4.67;;;14.00;38.70;;;;;;5071868;28;20441;-84
2022/02/27 09:25:26;;;;;;;10.13;5.67;;;13.60;40.80;;;;;;5080169;28;20492;-84
2022/02/27 09:28:14;;;;;;;15.50;8.17;;;13.50;39.50;;;;;;5079976;28;20449;-84
2022/02/27 09:30:42;;;;;;;10.70;5.90;;;12.90;41.90;;;;;;5080894;28;20465;-85
2022/02/27 09:33:11;;;;;;;11.80;5.00;;;12.80;41.60;;;;;;5080793;28;20442;-84
2022/02/27 09:35:39;;;;;;;13.23;4.57;;;13.00;40.10;;;;;;5076334;28;20477;-85
2022/02/27 09:38:07;;;;;;;11.37;4.80;;;12.30;40.80;;;;;;5063140;28;20499;-85
2022/02/27 09:40:35;;;;;;;8.33;5.20;;;12.40;41.80;;;;;;5079512;28;20433;-85
2022/02/27 09:43:03;;;;;;;8.33;4.40;;;12.90;41.80;;;;;;5079713;28;20438;-84
2022/02/27 09:45:31;;;;;;;16.40;5.20;;;13.10;41.00;;;;;;5080294;28;20449;-85
2022/02/27 09:47:59;;;;;;;10.10;4.47;;;12.40;40.20;;;;;;5079145;28;20434;-85
2022/02/27 09:50:28;;;;;;;13.93;5.33;;;12.50;41.60;;;;;;5079371;28;20535;-84
2022/02/27 09:52:57;;;;;;;17.67;8.03;;;12.70;41.10;;;;;;5069081;28;20462;-85
2022/02/27 09:55:25;;;;;;;9.77;5.90;;;13.10;41.40;;;;;;5077086;28;20544;-85
2022/02/27 09:57:53;;;;;;;10.60;4.97;;;12.90;39.80;;;;;;5081632;28;20429;-84
2022/02/27 10:00:21;;;;;;;10.10;5.10;;;12.60;40.30;;;;;;5079804;28;20422;-84
2022/02/27 10:03:10;;;;;;;10.93;4.83;;;12.80;40.60;;;;;;5080680;28;20434;-85
2022/02/27 10:05:41;;;;;;;6.43;4.80;;;13.30;42.30;;;;;;5076843;28;20449;-84
2022/02/27 10:08:09;;;;;;;9.73;5.47;;;13.20;40.40;;;;;;5078688;28;20442;-85
2022/02/27 10:10:39;;;;;;;10.50;4.63;;;13.80;39.80;;;;;;5063627;28;20466;-84
2022/02/27 10:13:07;;;;;;;9.83;4.67;;;13.80;40.30;;;;;;5067202;28;20469;-85
2022/02/27 10:15:35;;;;;;;9.47;5.13;;;14.10;39.00;;;;;;5080789;28;20477;-86
2022/02/27 10:18:13;;;;;;;12.17;4.97;;;14.00;39.00;;;;;;5080111;28;20450;-85
2022/02/27 10:20:43;;;;;;;8.63;4.27;;;14.00;40.00;;;;;;5080226;28;20526;-85
2022/02/27 10:23:10;;;;;;;8.90;4.43;;;14.70;39.50;;;;;;5080021;28;20449;-84
2022/02/27 10:25:39;;;;;;;7.70;4.20;;;14.40;36.20;;;;;;5079111;28;20457;-85
2022/02/27 10:28:07;;;;;;;6.90;4.60;;;12.70;39.00;;;;;;5080075;28;20456;-85
2022/02/27 10:30:36;;;;;;;10.30;4.53;;;12.70;40.20;;;;;;5079853;28;20464;-84
2022/02/27 10:33:06;;;;;;;10.90;4.93;;;12.10;40.40;;;;;;5080373;28;20532;-85
2022/02/27 10:35:46;;;;;;;7.07;4.90;;;11.70;41.40;;;;;;5079842;28;20507;-85
2022/02/27 10:38:15;;;;;;;8.83;4.10;;;11.80;42.70;;;;;;5079474;28;20458;-85
2022/02/27 10:40:45;;;;;;;7.97;4.43;;;12.10;41.70;;;;;;5079740;28;20477;-84
2022/02/27 10:43:14;;;;;;;8.33;4.43;;;12.50;40.70;;;;;;5079322;28;20410;-84
2022/02/27 10:45:42;;;;;;;6.53;4.13;;;12.40;39.70;;;;;;5080449;28;20450;-84
2022/02/27 10:48:13;;;;;;;7.60;4.53;;;13.00;38.90;;;;;;5079532;28;20491;-83
2022/02/27 10:50:41;;;;;;;8.20;3.80;;;12.80;40.00;;;;;;5080256;28;20474;-83
2022/02/27 10:53:10;;;;;;;14.67;4.23;;;13.40;39.40;;;;;;5079844;28;20445;-84
2022/02/27 10:55:38;;;;;;;8.10;3.30;;;14.50;41.20;;;;;;5078131;28;20477;-84
2022/02/27 10:58:06;;;;;;;8.53;2.90;;;16.30;38.50;;;;;;5079240;28;20453;-84
2022/02/27 11:00:35;;;;;;;3.80;2.40;;;17.60;36.70;;;;;;5079658;28;20442;-84
2022/02/27 11:03:04;;;;;;;6.07;2.70;;;18.60;35.40;;;;;;5079607;28;20446;-84
2022/02/27 11:05:35;;;;;;;4.10;2.40;;;19.40;34.60;;;;;;5079531;28;20452;-84
2022/02/27 11:08:05;;;;;;;5.67;2.40;;;20.00;34.20;;;;;;5080690;28;20488;-84
2022/02/27 11:10:34;;;;;;;6.50;2.90;;;20.50;33.70;;;;;;5080199;28;20445;-83
2022/02/27 11:13:04;;;;;;;5.33;2.20;;;21.00;33.40;;;;;;5079790;28;20450;-83
2022/02/27 11:15:31;;;;;;;3.93;2.37;;;21.50;33.30;;;;;;5079992;28;20477;-84
2022/02/27 11:17:59;;;;;;;9.90;2.50;;;21.90;33.10;;;;;;5080364;28;20425;-83
2022/02/27 11:20:27;;;;;;;6.53;2.53;;;22.30;33.60;;;;;;5080739;28;20515;-84
2022/02/27 11:22:56;;;;;;;7.80;2.40;;;22.60;32.80;;;;;;5080715;28;20412;-84
2022/02/27 11:25:28;;;;;;;15.20;2.87;;;23.00;32.80;;;;;;5079676;28;20465;-83
2022/02/27 11:28:02;;;;;;;3.73;2.30;;;23.80;32.60;;;;;;5077848;28;20453;-83
2022/02/27 11:30:30;;;;;;;6.00;2.47;;;24.70;32.00;;;;;;5061053;28;20463;-83
2022/02/27 11:33:01;;;;;;;7.23;2.40;;;25.90;31.10;;;;;;5061554;28;20426;-84
2022/02/27 11:35:39;;;;;;;3.30;2.30;;;27.00;30.00;;;;;;5061064;28;20486;-85
2022/02/27 11:38:08;;;;;;;5.17;2.57;;;28.20;29.00;;;;;;5061966;28;20382;-84
2022/02/27 11:40:50;;;;;;;3.27;2.43;;;29.20;28.00;;;;;;5061142;28;20408;-84
2022/02/27 11:43:21;;;;;;;3.77;2.57;;;30.20;27.50;;;;;;5077454;28;20451;-84
2022/02/27 11:45:59;;;;;;;4.23;2.40;;;31.00;26.60;;;;;;5079936;28;20461;-83
2022/02/27 11:48:57;;;;;;;3.43;2.67;;;31.60;25.80;;;;;;5079932;28;20453;-84
2022/02/27 11:51:52;;;;;;;3.80;2.43;;;32.20;25.20;;;;;;5079923;28;20462;-84
2022/02/27 11:54:20;;;;;;;2.30;1.90;;;32.70;24.80;;;;;;5080705;28;20499;-84
2022/02/27 11:57:05;;;;;;;5.67;2.20;;;33.10;24.40;;;;;;5080734;28;20500;-84
2022/02/27 11:59:57;;;;;;;2.40;2.20;;;33.60;24.00;;;;;;5073681;28;20473;-84
2022/02/27 12:02:27;;;;;;;11.20;2.47;;;34.10;23.70;;;;;;5072978;28;20442;-85
2022/02/27 12:04:56;;;;;;;10.53;2.60;;;34.10;24.30;;;;;;5080328;28;20446;-85
2022/02/27 12:07:24;;;;;;;7.50;2.73;;;34.20;24.60;;;;;;5080776;28;20433;-85
2022/02/27 12:10:00;;;;;;;7.20;2.50;;;34.50;24.70;;;;;;5081374;28;20477;-85
2022/02/27 12:12:56;;;;;;;2.67;2.30;;;34.70;24.50;;;;;;5079496;28;20430;-85
2022/02/27 12:15:31;;;;;;;7.43;2.07;;;34.90;24.30;;;;;;5077583;28;20487;-83
2022/02/27 12:18:03;;;;;;;8.00;2.60;;;35.00;24.90;;;;;;5076680;28;20596;-84
2022/02/27 12:20:58;;;;;;;3.50;2.83;;;35.10;24.90;;;;;;5079172;28;20442;-85
2022/02/27 12:23:47;;;;;;;6.80;2.70;;;35.20;24.80;;;;;;5077180;28;20437;-84
2022/02/27 12:26:43;;;;;;;4.60;2.60;;;35.20;25.30;;;;;;5076401;28;20461;-85
2022/02/27 12:29:19;;;;;;;8.00;2.80;;;35.40;25.40;;;;;;5075973;28;20406;-85
2022/02/27 12:31:48;;;;;;;2.73;2.50;;;34.80;25.60;;;;;;5076322;28;20476;-84
2022/02/27 12:34:18;;;;;;;3.93;2.90;;;34.70;25.60;;;;;;5075288;28;20479;-83
2022/02/27 12:36:49;;;;;;;4.47;2.60;;;34.80;25.80;;;;;;5075836;28;20536;-84
2022/02/27 12:39:17;;;;;;;7.50;3.00;;;34.70;25.80;;;;;;5075265;28;20425;-82
2022/02/27 12:41:46;;;;;;;3.50;3.20;;;35.00;25.70;;;;;;5075351;28;20470;-83
2022/02/27 12:44:18;;;;;;;5.43;3.00;;;34.80;26.00;;;;;;5074690;28;20430;-82
2022/02/27 12:46:46;;;;;;;3.03;2.83;;;34.80;26.10;;;;;;5074539;28;20517;-83
2022/02/27 12:52:14;;;;;;;4.30;2.70;;;35.10;24.50;;;;;;5050750;28;20465;-86
2022/02/27 12:54:41;;;;;;;4.70;2.87;;;35.10;21.80;;;;;;5074132;28;20947;-87
2022/02/27 12:57:10;;;;;;;2.70;2.50;;;34.70;21.20;;;;;;5073459;28;20834;-89
2022/02/27 12:59:40;;;;;;;2.73;2.47;;;34.60;19.80;;;;;;5075099;28;20442;-84